createdAt,value
2023-03-03T00:00:56.549Z,48.17
2023-03-03T00:03:24.885Z,52.20
2023-03-03T00:05:52.465Z,51.57
2023-03-03T00:08:20.516Z,53.78
2023-03-03T00:10:47.464Z,49.90
2023-03-03T00:13:22.564Z,51.20
2023-03-03T00:15:50.264Z,50.65
2023-03-03T00:18:31.369Z,52.70
2023-03-03T00:21:01.103Z,52.42
2023-03-03T00:23:40.740Z,53.80
2023-03-03T00:26:21.606Z,52.55
2023-03-03T00:28:50.627Z,56.00
2023-03-03T00:31:25.462Z,53.10
2023-03-03T00:33:54.826Z,54.58
2023-03-03T00:36:28.860Z,54.97
2023-03-03T00:39:00.211Z,56.58
2023-03-03T00:41:27.917Z,57.97
2023-03-03T00:43:54.698Z,58.95
2023-03-03T00:46:23.729Z,54.97
2023-03-03T00:48:51.572Z,56.65
2023-03-03T00:51:20.958Z,58.33
2023-03-03T00:56:14.491Z,60.08
2023-03-03T00:58:41.204Z,52.75
2023-03-03T01:01:07.864Z,54.15
2023-03-03T01:03:34.315Z,54.83
2023-03-03T01:06:00.818Z,57.65
2023-03-03T01:08:27.304Z,57.58
2023-03-03T01:10:57.020Z,57.08
2023-03-03T01:13:27.428Z,52.08
2023-03-03T01:15:54.344Z,55.92
2023-03-03T01:18:27.527Z,52.90
2023-03-03T01:20:54.059Z,53.55
2023-03-03T01:23:20.576Z,51.95
2023-03-03T01:25:47.096Z,55.75
2023-03-03T01:28:13.651Z,59.88
2023-03-03T01:30:40.155Z,61.85
2023-03-03T01:33:06.581Z,60.63
2023-03-03T01:35:33.114Z,58.78
2023-03-03T01:37:59.652Z,63.78
2023-03-03T01:40:28.860Z,60.30
2023-03-03T01:45:26.007Z,63.45
2023-03-03T01:48:03.025Z,61.50
2023-03-03T01:50:46.269Z,74.55
2023-03-03T01:53:18.503Z,70.40
2023-03-03T01:55:47.458Z,70.30
2023-03-03T01:58:45.495Z,65.53
2023-03-03T02:01:15.586Z,69.43
2023-03-03T02:03:43.846Z,65.82
2023-03-03T02:06:15.585Z,68.50
2023-03-03T02:09:07.770Z,67.82
2023-03-03T02:11:37.381Z,75.72
2023-03-03T02:14:04.296Z,74.72
2023-03-03T02:16:31.089Z,71.70
2023-03-03T02:18:57.741Z,70.18
2023-03-03T02:21:28.448Z,76.13
2023-03-03T02:24:10.967Z,74.78
2023-03-03T02:26:41.316Z,71.97
2023-03-03T02:29:09.886Z,73.93
2023-03-03T02:31:37.318Z,76.97
2023-03-03T02:34:04.132Z,77.88
2023-03-03T02:36:33.406Z,79.18
2023-03-03T02:39:07.060Z,76.50
2023-03-03T02:41:40.545Z,81.57
2023-03-03T02:44:10.436Z,76.63
2023-03-03T02:46:40.408Z,80.63
2023-03-03T02:49:08.871Z,75.35
2023-03-03T02:51:35.801Z,78.55
2023-03-03T02:54:02.699Z,74.85
2023-03-03T02:56:29.326Z,76.55
2023-03-03T02:58:56.158Z,75.15
2023-03-03T03:01:23.251Z,79.10
2023-03-03T03:03:50.172Z,78.35
2023-03-03T03:06:16.711Z,75.80
2023-03-03T03:08:43.221Z,73.10
2023-03-03T03:11:09.777Z,72.88
2023-03-03T03:13:36.293Z,75.07
2023-03-03T03:16:02.866Z,79.78
2023-03-03T03:18:29.368Z,68.32
2023-03-03T03:20:55.870Z,71.50
2023-03-03T03:23:22.373Z,71.90
2023-03-03T03:25:49.064Z,76.38
2023-03-03T03:28:17.416Z,70.32
2023-03-03T03:30:45.603Z,69.80
2023-03-03T03:33:12.133Z,60.30
2023-03-03T03:35:40.394Z,73.20
2023-03-03T03:38:06.912Z,72.57
2023-03-03T03:40:33.372Z,73.60
2023-03-03T03:42:59.857Z,71.40
2023-03-03T03:45:26.413Z,76.22
2023-03-03T03:47:52.862Z,74.63
2023-03-03T03:50:19.433Z,78.07
2023-03-03T03:52:45.934Z,77.45
2023-03-03T03:55:12.566Z,76.38
2023-03-03T03:57:39.084Z,75.57
2023-03-03T04:00:06.547Z,78.25
2023-03-03T04:02:35.932Z,82.25
2023-03-03T04:05:03.590Z,78.93
2023-03-03T04:07:30.103Z,76.35
2023-03-03T04:09:56.653Z,72.80
2023-03-03T04:12:23.480Z,72.93
2023-03-03T04:14:50.007Z,74.05
2023-03-03T04:17:18.287Z,77.28
2023-03-03T04:19:44.933Z,75.90
2023-03-03T04:22:12.609Z,80.00
2023-03-03T04:24:40.166Z,77.70
2023-03-03T04:27:08.572Z,79.78
2023-03-03T04:29:35.447Z,76.13
2023-03-03T04:32:02.131Z,75.65
2023-03-03T04:34:28.627Z,78.97
2023-03-03T04:36:55.564Z,79.65
2023-03-03T04:39:22.195Z,78.88
2023-03-03T04:41:48.697Z,79.70
2023-03-03T04:44:15.175Z,80.15
2023-03-03T04:46:41.748Z,76.38
2023-03-03T04:49:10.765Z,80.85
2023-03-03T04:51:38.706Z,78.43
2023-03-03T04:54:05.238Z,81.28
2023-03-03T04:56:31.752Z,78.15
2023-03-03T04:58:58.440Z,75.50
2023-03-03T05:01:24.987Z,76.05
2023-03-03T05:03:51.588Z,80.95
2023-03-03T05:06:18.847Z,82.10
2023-03-03T05:08:46.627Z,73.97
2023-03-03T05:11:13.941Z,76.43
2023-03-03T05:13:40.788Z,77.05
2023-03-03T05:16:08.102Z,82.22
2023-03-03T05:18:34.846Z,77.95
2023-03-03T05:21:01.361Z,79.20
2023-03-03T05:23:29.082Z,84.00
2023-03-03T05:25:55.688Z,76.80
2023-03-03T05:28:22.292Z,77.70
2023-03-03T05:30:48.910Z,79.18
2023-03-03T05:33:17.059Z,78.55
2023-03-03T05:35:44.218Z,71.55
2023-03-03T05:38:11.120Z,66.65
2023-03-03T05:40:38.148Z,62.90
2023-03-03T05:43:04.962Z,63.58
2023-03-03T05:45:31.519Z,65.30
2023-03-03T05:47:58.269Z,68.38
2023-03-03T05:50:24.897Z,77.72
2023-03-03T05:52:52.219Z,70.28
2023-03-03T05:55:19.331Z,79.13
2023-03-03T05:57:46.320Z,75.65
2023-03-03T06:00:14.477Z,76.68
2023-03-03T06:02:42.305Z,77.07
2023-03-03T06:05:09.588Z,73.55
2023-03-03T06:07:36.142Z,70.72
2023-03-03T06:10:03.916Z,65.35
2023-03-03T06:12:30.508Z,58.83
2023-03-03T06:14:57.074Z,63.47
2023-03-03T06:17:23.647Z,59.63
2023-03-03T06:19:50.119Z,68.45
2023-03-03T06:22:16.644Z,65.40
2023-03-03T06:24:43.268Z,64.47
2023-03-03T06:27:10.319Z,70.95
2023-03-03T06:29:36.842Z,64.88
2023-03-03T06:32:03.605Z,61.92
2023-03-03T06:34:30.236Z,63.38
2023-03-03T06:36:57.100Z,60.70
2023-03-03T06:39:23.624Z,59.63
2023-03-03T06:41:50.131Z,65.93
2023-03-03T06:44:17.060Z,65.75
2023-03-03T06:46:43.523Z,60.47
2023-03-03T06:49:10.121Z,66.78
2023-03-03T06:51:39.769Z,64.60
2023-03-03T06:54:18.300Z,64.95
2023-03-03T06:56:46.074Z,67.00
2023-03-03T06:59:18.506Z,66.13
2023-03-03T07:01:46.992Z,67.70
2023-03-03T07:04:19.550Z,68.82
2023-03-03T07:06:46.291Z,70.25
2023-03-03T07:09:23.930Z,66.38
2023-03-03T07:12:10.620Z,67.55
2023-03-03T07:14:51.566Z,69.15
2023-03-03T07:17:20.347Z,66.55
2023-03-03T07:19:48.024Z,70.13
2023-03-03T07:22:16.334Z,71.78
2023-03-03T07:24:51.327Z,76.13
2023-03-03T07:27:24.779Z,75.65
2023-03-03T07:29:54.096Z,71.57
2023-03-03T07:32:39.934Z,79.25
2023-03-03T07:35:41.287Z,67.63
2023-03-03T07:38:30.929Z,72.90
2023-03-03T07:41:00.543Z,65.13
2023-03-03T07:43:29.995Z,63.55
2023-03-03T07:46:03.494Z,64.75
2023-03-03T07:48:42.357Z,66.28
2023-03-03T07:51:22.308Z,70.32
2023-03-03T07:53:49.276Z,66.70
2023-03-03T07:56:30.814Z,64.93
2023-03-03T07:58:58.393Z,64.03
2023-03-03T08:01:41.148Z,69.40
2023-03-03T08:04:18.011Z,64.53
2023-03-03T08:06:53.457Z,54.45
2023-03-03T08:09:20.029Z,56.80
2023-03-03T08:11:53.332Z,70.57
2023-03-03T08:14:38.835Z,64.60
2023-03-03T08:17:21.512Z,65.40
2023-03-03T08:19:49.731Z,59.72
2023-03-03T08:22:19.487Z,56.58
2023-03-03T08:24:46.080Z,57.55
2023-03-03T08:27:12.549Z,58.67
2023-03-03T08:29:39.080Z,54.92
2023-03-03T08:32:05.709Z,64.38
2023-03-03T08:34:32.314Z,60.90
2023-03-03T08:36:58.804Z,61.67
2023-03-03T08:39:25.351Z,54.38
2023-03-03T08:41:51.869Z,57.17
2023-03-03T08:44:20.258Z,62.53
2023-03-03T08:46:46.788Z,57.10
2023-03-03T08:49:13.351Z,62.40
2023-03-03T08:51:40.278Z,56.72
2023-03-03T08:54:07.106Z,59.30
2023-03-03T08:56:33.735Z,58.05
2023-03-03T08:59:02.679Z,57.70
2023-03-03T09:01:33.394Z,55.15
2023-03-03T09:04:00.494Z,55.80
2023-03-03T09:06:27.371Z,51.30
2023-03-03T09:08:54.903Z,53.70
2023-03-03T09:11:27.578Z,51.22
2023-03-03T09:14:02.648Z,48.85
2023-03-03T09:16:34.897Z,49.60
2023-03-03T09:19:21.466Z,58.85
2023-03-03T09:21:48.023Z,56.47
2023-03-03T09:24:30.257Z,65.75
2023-03-03T09:26:58.910Z,71.70
2023-03-03T09:29:29.045Z,57.28
2023-03-03T09:31:56.707Z,68.40
2023-03-03T09:34:27.942Z,64.53
2023-03-03T09:36:55.488Z,56.40
2023-03-03T09:39:26.800Z,59.97
2023-03-03T09:42:02.459Z,68.07
2023-03-03T09:45:27.919Z,64.72
2023-03-03T09:48:17.002Z,69.55
2023-03-03T09:51:05.304Z,76.90
2023-03-03T09:56:34.852Z,70.70
2023-03-03T09:59:37.305Z,69.15
2023-03-03T10:02:28.720Z,68.55
2023-03-03T10:05:14.086Z,66.05
2023-03-03T10:08:36.120Z,65.38
2023-03-03T10:11:28.222Z,60.05
2023-03-03T10:14:03.839Z,62.28
2023-03-03T10:16:39.681Z,62.83
2023-03-03T10:19:50.009Z,61.47
2023-03-03T10:22:28.456Z,58.53
2023-03-03T10:25:04.875Z,61.28
2023-03-03T10:28:03.891Z,58.72
2023-03-03T10:31:05.571Z,61.65
2023-03-03T10:33:40.915Z,56.92
2023-03-03T10:36:07.981Z,60.85
2023-03-03T10:39:00.874Z,57.78
2023-03-03T10:41:27.587Z,59.70
2023-03-03T10:44:40.441Z,62.13
2023-03-03T10:47:31.434Z,53.47
2023-03-03T10:50:20.139Z,53.75
2023-03-03T10:52:53.841Z,61.17
2023-03-03T10:55:31.549Z,61.90
2023-03-03T10:58:38.492Z,59.08
2023-03-03T11:01:30.864Z,58.60
2023-03-03T11:03:57.867Z,60.15
2023-03-03T11:06:49.810Z,59.45
2023-03-03T11:09:37.576Z,69.35
2023-03-03T11:12:28.662Z,65.75
2023-03-03T11:15:13.694Z,68.38
2023-03-03T11:18:05.928Z,66.93
2023-03-03T11:20:46.182Z,67.70
2023-03-03T11:23:50.548Z,65.47
2023-03-03T11:26:46.469Z,64.07
2023-03-03T11:29:27.750Z,65.15
2023-03-03T11:32:32.292Z,67.00
2023-03-03T11:35:19.928Z,73.25
2023-03-03T11:37:51.687Z,64.53
2023-03-03T11:40:25.323Z,59.50
2023-03-03T11:42:58.496Z,59.38
2023-03-03T11:45:49.580Z,64.75
2023-03-03T11:48:34.401Z,63.05
2023-03-03T11:51:08.224Z,63.83
2023-03-03T11:53:44.241Z,63.78
2023-03-03T11:56:21.932Z,59.53
2023-03-03T11:59:10.370Z,61.95
2023-03-03T12:01:46.521Z,64.38
2023-03-03T12:04:25.053Z,62.65
2023-03-03T12:07:01.919Z,51.92
2023-03-03T12:09:54.408Z,65.60
2023-03-03T12:12:27.390Z,62.60
2023-03-03T12:15:18.955Z,62.38
2023-03-03T12:18:09.664Z,65.45
2023-03-03T12:20:54.214Z,67.57
2023-03-03T12:24:12.289Z,63.65
2023-03-03T12:27:14.480Z,66.00
2023-03-03T12:29:51.081Z,67.88
2023-03-03T12:32:56.628Z,65.05
2023-03-03T12:35:31.041Z,65.63
2023-03-03T12:38:32.662Z,64.82
2023-03-03T12:41:27.052Z,66.32
2023-03-03T12:44:26.793Z,65.63
2023-03-03T12:47:08.545Z,61.72
2023-03-03T12:50:08.403Z,66.03
2023-03-03T12:53:09.977Z,60.35
2023-03-03T12:56:07.128Z,60.72
2023-03-03T12:58:42.581Z,63.38
2023-03-03T13:01:18.000Z,66.47
2023-03-03T13:03:56.483Z,62.00
2023-03-03T13:06:30.140Z,63.42
2023-03-03T13:09:01.868Z,62.20
2023-03-03T13:11:53.950Z,62.03
2023-03-03T13:14:46.913Z,56.90
2023-03-03T13:17:26.601Z,55.13
2023-03-03T13:20:00.266Z,52.15
2023-03-03T13:22:51.872Z,54.42
2023-03-03T13:25:44.349Z,55.50
2023-03-03T13:28:16.965Z,53.30
2023-03-03T13:30:49.643Z,53.75
2023-03-03T13:33:33.505Z,55.60
2023-03-03T13:36:02.253Z,53.30
2023-03-03T13:38:36.539Z,50.08
2023-03-03T13:41:09.816Z,52.75
2023-03-03T13:43:45.765Z,56.95
2023-03-03T13:46:22.899Z,53.85
2023-03-03T13:49:14.531Z,48.50
2023-03-03T13:51:50.955Z,53.13
2023-03-03T13:54:36.235Z,57.40
2023-03-03T13:57:26.983Z,57.20
2023-03-03T14:00:13.140Z,63.70
2023-03-03T14:02:48.745Z,58.75
2023-03-03T14:05:18.543Z,56.88
2023-03-03T14:08:13.813Z,57.05
2023-03-03T14:10:48.893Z,55.70
2023-03-03T14:13:41.292Z,57.97
2023-03-03T14:16:17.116Z,63.72
2023-03-03T14:18:57.165Z,70.53
2023-03-03T14:21:43.230Z,68.57
2023-03-03T14:24:22.434Z,74.55
2023-03-03T14:29:32.209Z,73.32
2023-03-03T14:32:01.702Z,73.25
2023-03-03T14:34:41.228Z,70.82
2023-03-03T14:37:42.118Z,76.82
2023-03-03T14:40:22.937Z,80.28
2023-03-03T14:42:52.643Z,77.50
2023-03-03T14:45:36.116Z,76.30
2023-03-03T14:48:16.526Z,72.68
2023-03-03T14:50:50.656Z,79.47
2023-03-03T14:53:21.761Z,81.15
2023-03-03T14:55:53.645Z,79.22
2023-03-03T14:58:43.254Z,73.15
2023-03-03T15:01:20.808Z,78.25
2023-03-03T15:03:57.744Z,80.45
2023-03-03T15:06:46.903Z,84.07
2023-03-03T15:09:43.173Z,76.43
2023-03-03T15:12:31.963Z,81.72
2023-03-03T15:15:04.539Z,85.03
2023-03-03T15:17:49.788Z,82.72
2023-03-03T15:20:59.185Z,77.90
2023-03-03T15:23:28.640Z,80.05
2023-03-03T15:26:03.823Z,75.18
2023-03-03T15:28:59.229Z,73.10
2023-03-03T15:31:30.098Z,77.72
2023-03-03T15:34:26.656Z,78.63
2023-03-03T15:36:54.837Z,72.53
2023-03-03T15:39:29.057Z,72.50
2023-03-03T15:42:13.882Z,72.07
2023-03-03T15:45:01.059Z,73.47
2023-03-03T15:47:57.063Z,69.57
2023-03-03T15:51:01.670Z,69.28
2023-03-03T15:53:43.748Z,70.32
2023-03-03T15:56:38.055Z,72.03
2023-03-03T15:59:26.386Z,66.10
2023-03-03T16:02:04.944Z,74.70
2023-03-03T16:04:51.652Z,76.53
2023-03-03T16:07:32.035Z,67.07
2023-03-03T16:10:03.774Z,73.20
2023-03-03T16:12:36.360Z,73.05
2023-03-03T16:15:15.583Z,71.20
2023-03-03T16:20:43.403Z,68.95
2023-03-03T16:23:16.112Z,70.97
2023-03-03T16:25:54.781Z,63.28
2023-03-03T16:28:56.478Z,69.75
2023-03-03T16:31:36.075Z,68.97
2023-03-03T16:34:24.197Z,67.50
2023-03-03T16:37:12.627Z,63.35
2023-03-03T16:40:10.813Z,70.35
2023-03-03T16:42:37.433Z,60.70
2023-03-03T16:45:07.046Z,72.68
2023-03-03T16:47:39.099Z,62.80
2023-03-03T16:50:26.267Z,68.80
2023-03-03T16:53:11.677Z,67.05
2023-03-03T16:55:47.401Z,65.43
2023-03-03T16:58:32.149Z,61.65
2023-03-03T17:01:21.100Z,63.63
2023-03-03T17:03:59.744Z,67.03
2023-03-03T17:06:52.624Z,61.58
2023-03-03T17:09:42.073Z,63.42
2023-03-03T17:12:11.537Z,70.63
2023-03-03T17:14:53.326Z,55.92
2023-03-03T17:17:33.777Z,59.95
2023-03-03T17:20:15.359Z,63.58
2023-03-03T17:23:24.843Z,61.13
2023-03-03T17:26:19.142Z,66.25
2023-03-03T17:29:08.840Z,61.45
2023-03-03T17:31:54.131Z,65.45
2023-03-03T17:34:54.133Z,67.30
2023-03-03T17:37:58.094Z,71.07
2023-03-03T17:40:44.802Z,72.68
2023-03-03T17:43:25.154Z,69.82
2023-03-03T17:45:56.115Z,70.32
2023-03-03T17:48:49.058Z,68.97
2023-03-03T17:51:59.982Z,71.22
2023-03-03T17:54:26.365Z,74.20
2023-03-03T17:57:24.325Z,76.13
2023-03-03T18:00:32.466Z,79.07
2023-03-03T18:03:38.250Z,74.00
2023-03-03T18:06:24.096Z,72.57
2023-03-03T18:09:15.373Z,71.43
2023-03-03T18:12:23.561Z,83.00
2023-03-03T18:15:08.435Z,81.53
2023-03-03T18:18:22.387Z,79.63
2023-03-03T18:21:13.935Z,88.70
2023-03-03T18:23:42.948Z,82.07
2023-03-03T18:26:30.743Z,87.80
2023-03-03T18:29:12.408Z,90.72
2023-03-03T18:31:59.269Z,90.45
2023-03-03T18:34:39.067Z,90.65
2023-03-03T18:37:30.434Z,98.88
2023-03-03T18:40:02.891Z,102.78
2023-03-03T18:42:41.527Z,99.90
2023-03-03T18:45:20.197Z,121.03
2023-03-03T18:48:07.813Z,104.90
2023-03-03T18:50:56.147Z,117.47
2023-03-03T18:53:27.133Z,119.68
2023-03-03T18:55:56.581Z,118.47
2023-03-03T18:58:33.140Z,109.13
2023-03-03T19:01:13.142Z,108.65
2023-03-03T19:03:48.475Z,117.22
2023-03-03T19:06:52.249Z,114.15
2023-03-03T19:09:40.253Z,121.32
2023-03-03T19:12:10.726Z,118.57
2023-03-03T19:14:40.849Z,87.50
2023-03-03T19:17:16.436Z,119.70
2023-03-03T19:20:09.974Z,124.22
2023-03-03T19:22:49.126Z,119.15
2023-03-03T19:28:25.696Z,118.28
2023-03-03T19:31:05.884Z,123.75
2023-03-03T19:33:39.147Z,122.22
2023-03-03T19:36:20.519Z,130.88
2023-03-03T19:39:06.919Z,126.25
2023-03-03T19:41:56.619Z,139.15
2023-03-03T19:44:44.529Z,127.63
2023-03-03T19:47:23.547Z,142.82
2023-03-03T19:50:21.201Z,135.48
2023-03-03T19:52:59.456Z,132.57
2023-03-03T19:55:33.353Z,110.90
2023-03-03T19:58:06.923Z,133.85
2023-03-03T20:00:43.332Z,140.38
2023-03-03T20:03:38.195Z,147.75
2023-03-03T20:06:10.569Z,156.05
2023-03-03T20:09:08.594Z,144.93
2023-03-03T20:12:02.912Z,153.85
2023-03-03T20:14:49.063Z,145.05
2023-03-03T20:17:30.825Z,154.35
2023-03-03T20:20:26.519Z,152.55
2023-03-03T20:23:16.441Z,146.50
2023-03-03T20:26:11.512Z,146.05
2023-03-03T20:29:15.089Z,149.45
2023-03-03T20:32:10.998Z,146.23
2023-03-03T20:34:56.549Z,149.55
2023-03-03T20:37:55.781Z,149.00
2023-03-03T20:40:36.930Z,153.48
2023-03-03T20:43:22.325Z,154.77
2023-03-03T20:45:58.034Z,145.95
2023-03-03T20:48:45.721Z,151.70
2023-03-03T20:51:37.606Z,158.02
2023-03-03T20:54:13.362Z,165.50
2023-03-03T20:57:06.658Z,157.48
2023-03-03T20:59:41.389Z,154.90
2023-03-03T21:02:28.303Z,154.68
2023-03-03T21:05:18.825Z,149.18
2023-03-03T21:08:03.014Z,147.70
2023-03-03T21:10:37.458Z,154.90
2023-03-03T21:13:25.674Z,155.88
2023-03-03T21:16:02.426Z,148.50
2023-03-03T21:18:29.590Z,147.93
2023-03-03T21:20:56.276Z,148.65
2023-03-03T21:23:23.085Z,154.05
2023-03-03T21:25:54.625Z,152.35
2023-03-03T21:28:33.718Z,153.30
2023-03-03T21:33:51.018Z,153.40
2023-03-03T21:36:18.960Z,159.85
2023-03-03T21:38:46.808Z,159.98
2023-03-03T21:41:15.384Z,169.60
2023-03-03T21:43:44.828Z,166.50
2023-03-03T21:46:12.516Z,156.60
2023-03-03T21:48:42.890Z,152.70
2023-03-03T21:51:12.024Z,151.52
2023-03-03T21:53:38.645Z,154.48
2023-03-03T21:56:05.639Z,156.13
2023-03-03T21:58:32.445Z,158.40
2023-03-03T22:00:59.140Z,140.48
2023-03-03T22:03:25.907Z,141.82
2023-03-03T22:05:53.652Z,141.93
2023-03-03T22:08:23.273Z,143.55
2023-03-03T22:10:53.868Z,141.25
2023-03-03T22:13:20.596Z,147.73
2023-03-03T22:15:48.037Z,138.93
2023-03-03T22:18:18.172Z,132.45
2023-03-03T22:20:46.326Z,142.10
2023-03-03T22:23:14.658Z,146.70
2023-03-03T22:25:41.659Z,143.13
2023-03-03T22:28:08.602Z,141.88
2023-03-03T22:30:36.509Z,145.00
2023-03-03T22:33:03.412Z,147.52
2023-03-03T22:35:30.198Z,138.00
2023-03-03T22:37:56.934Z,152.95
2023-03-03T22:40:23.903Z,139.32
2023-03-03T22:42:50.677Z,146.55
2023-03-03T22:45:17.320Z,141.65
2023-03-03T22:47:43.912Z,141.45
2023-03-03T22:50:11.516Z,135.88
2023-03-03T22:52:38.137Z,136.88
2023-03-03T22:55:05.629Z,140.30
2023-03-03T22:57:32.380Z,124.57
2023-03-03T22:59:59.983Z,136.38
2023-03-03T23:02:26.694Z,124.20
2023-03-03T23:04:58.125Z,133.70
2023-03-03T23:07:26.296Z,129.15
2023-03-03T23:09:53.109Z,126.97
2023-03-03T23:12:19.909Z,125.82
2023-03-03T23:14:46.594Z,130.38
2023-03-03T23:17:13.231Z,133.10
2023-03-03T23:19:39.840Z,124.78
2023-03-03T23:22:06.527Z,126.80
2023-03-03T23:24:33.280Z,133.90
2023-03-03T23:27:00.700Z,127.60
2023-03-03T23:29:27.359Z,123.18
2023-03-03T23:31:54.184Z,134.68
2023-03-03T23:34:21.000Z,120.15
2023-03-03T23:36:47.688Z,122.43
2023-03-03T23:39:15.216Z,116.20
2023-03-03T23:41:42.026Z,130.70
2023-03-03T23:44:08.776Z,124.88
2023-03-03T23:46:35.604Z,121.95
2023-03-03T23:49:02.414Z,131.80
2023-03-03T23:51:29.133Z,121.60
2023-03-03T23:53:56.414Z,125.78
2023-03-03T23:56:23.027Z,134.85
2023-03-03T23:58:49.697Z,134.60
